Time;durP1;ratioP1;P1;durP2;ratioP2;P2;SDS_P1;SDS_P2;PMS_P1;PMS_P2;Temp;Humidity;BMP_temperature;BMP_pressure;BME280_temperature;BME280_humidity;BME280_pressure;Samples;Min_cycle;Max_cycle;Signal;HPM_P1;HPM_P2
2022/04/08 08:25:14;;;;;;;15.95;10.18;;;13.20;99.90;;;;;;5513111;23;2141826;-79
2022/04/08 08:27:45;;;;;;;17.70;9.85;;;13.20;99.90;;;;;;4943570;29;20504;-79
2022/04/08 08:30:12;;;;;;;17.55;9.85;;;13.20;99.90;;;;;;4935668;29;20055;-79
2022/04/08 08:32:39;;;;;;;24.48;11.60;;;13.30;99.90;;;;;;4936769;29;20036;-79
2022/04/08 08:35:09;;;;;;;28.70;14.13;;;13.40;99.90;;;;;;4945580;29;20046;-79
2022/04/08 08:37:35;;;;;;;24.23;12.90;;;13.50;99.90;;;;;;4929960;29;20362;-79
2022/04/08 08:40:03;;;;;;;25.38;12.30;;;13.50;99.90;;;;;;4931848;29;20091;-79
2022/04/08 08:42:29;;;;;;;22.77;11.27;;;13.70;99.90;;;;;;4919003;29;20055;-78
2022/04/08 08:44:55;;;;;;;16.48;11.25;;;13.80;99.90;;;;;;4942182;29;20015;-78
2022/04/08 08:47:22;;;;;;;23.75;12.73;;;13.80;99.90;;;;;;4934549;29;20024;-78
2022/04/08 08:49:50;;;;;;;20.15;11.57;;;13.90;99.90;;;;;;4950703;29;20424;-79
2022/04/08 08:52:18;;;;;;;19.10;10.80;;;14.00;99.90;;;;;;4935577;29;20033;-79
2022/04/08 08:54:47;;;;;;;18.02;10.23;;;14.10;99.90;;;;;;4952309;29;20110;-79
2022/04/08 08:57:18;;;;;;;20.65;11.02;;;14.20;99.90;;;;;;4952112;29;20030;-78
2022/04/08 08:59:44;;;;;;;23.90;11.70;;;14.40;99.90;;;;;;4946997;29;20031;-79
2022/04/08 09:02:19;;;;;;;23.02;11.45;;;14.40;99.90;;;;;;4930065;29;20035;-79
2022/04/08 09:04:45;;;;;;;15.88;9.82;;;14.40;99.90;;;;;;4931707;29;20188;-75
2022/04/08 09:07:28;;;;;;;19.75;11.07;;;14.50;99.90;;;;;;4933337;29;20023;-75
2022/04/08 09:09:56;;;;;;;18.02;10.10;;;14.60;99.90;;;;;;4933914;29;20024;-75
2022/04/08 09:12:29;;;;;;;25.58;11.55;;;14.70;99.90;;;;;;4945206;29;20036;-74
2022/04/08 09:14:57;;;;;;;17.00;10.32;;;14.70;99.90;;;;;;4943498;29;20029;-75
2022/04/08 09:17:26;;;;;;;18.67;11.13;;;14.80;99.90;;;;;;4933672;29;20035;-74
2022/04/08 09:19:54;;;;;;;24.27;12.80;;;14.80;99.90;;;;;;4949938;29;20024;-78
2022/04/08 09:22:21;;;;;;;19.85;11.63;;;14.90;99.90;;;;;;4941460;29;20031;-78
2022/04/08 09:24:47;;;;;;;14.73;9.02;;;15.00;99.90;;;;;;4944891;29;20023;-78
2022/04/08 09:27:13;;;;;;;20.33;8.98;;;14.90;99.90;;;;;;4945543;29;20138;-78
2022/04/08 09:29:44;;;;;;;15.65;8.82;;;14.90;99.90;;;;;;4938019;29;20027;-79
2022/04/08 09:32:11;;;;;;;10.82;6.50;;;14.80;99.90;;;;;;4937534;29;20447;-79
2022/04/08 09:34:38;;;;;;;11.43;7.63;;;14.90;99.90;;;;;;4925632;29;20433;-79
2022/04/08 09:37:12;;;;;;;7.18;4.25;;;15.00;99.90;;;;;;4942441;29;20089;-79
2022/04/08 09:40:07;;;;;;;11.85;5.22;;;15.10;99.90;;;;;;4947121;29;20504;-79
2022/04/08 09:42:47;;;;;;;15.02;7.50;;;15.10;99.90;;;;;;4940421;29;20489;-79
2022/04/08 09:45:14;;;;;;;25.33;11.15;;;15.00;99.90;;;;;;4924158;29;20035;-78
2022/04/08 09:47:40;;;;;;;20.73;10.57;;;15.20;99.90;;;;;;4931956;29;20564;-79
2022/04/08 09:50:10;;;;;;;17.45;9.70;;;15.40;99.90;;;;;;4937656;29;20477;-79
2022/04/08 09:52:42;;;;;;;16.48;10.23;;;15.40;99.90;;;;;;4949692;29;20426;-79
2022/04/08 09:55:09;;;;;;;22.73;12.80;;;15.30;99.90;;;;;;4931398;29;20523;-79
2022/04/08 09:57:39;;;;;;;22.67;11.13;;;15.50;99.90;;;;;;4941838;29;20119;-78
2022/04/08 10:00:06;;;;;;;13.40;9.25;;;15.60;99.90;;;;;;4953103;29;20024;-78
2022/04/08 10:02:44;;;;;;;15.88;9.75;;;15.70;99.90;;;;;;4943182;29;20033;-79
2022/04/08 10:05:10;;;;;;;16.40;9.55;;;15.80;99.90;;;;;;4948911;29;20054;-79
2022/04/08 10:07:37;;;;;;;13.85;8.55;;;16.00;99.90;;;;;;4941625;29;20027;-79
2022/04/08 10:10:24;;;;;;;15.98;9.77;;;16.20;99.90;;;;;;4945194;29;20567;-79
2022/04/08 10:12:53;;;;;;;17.55;8.23;;;16.30;99.90;;;;;;4941292;29;20034;-79
2022/04/08 10:15:40;;;;;;;11.25;8.13;;;16.20;99.90;;;;;;4949720;29;20019;-79
2022/04/08 10:18:06;;;;;;;15.48;7.85;;;16.30;99.90;;;;;;4923436;29;20031;-79
2022/04/08 10:20:35;;;;;;;16.00;7.05;;;16.40;99.90;;;;;;4932431;29;20110;-79
2022/04/08 10:23:08;;;;;;;16.17;7.93;;;16.60;99.90;;;;;;4946457;29;20030;-79
2022/04/08 10:25:48;;;;;;;13.60;6.57;;;16.50;99.90;;;;;;4945583;29;20134;-79
2022/04/08 10:28:16;;;;;;;14.88;6.10;;;16.30;99.90;;;;;;4928930;29;20037;-79
2022/04/08 10:30:49;;;;;;;9.82;6.82;;;16.30;99.90;;;;;;4925468;29;20359;-79
2022/04/08 10:33:28;;;;;;;16.27;6.47;;;16.50;99.90;;;;;;4942533;29;20027;-78
2022/04/08 10:35:55;;;;;;;8.45;4.65;;;16.50;99.90;;;;;;4952154;29;20029;-79
2022/04/08 10:38:22;;;;;;;7.93;5.38;;;16.50;99.90;;;;;;4941613;29;20027;-79
2022/04/08 10:40:56;;;;;;;11.15;6.25;;;16.50;99.90;;;;;;4947276;29;20528;-78
2022/04/08 10:43:23;;;;;;;12.93;6.00;;;16.50;99.90;;;;;;4936603;29;20441;-79
2022/04/08 10:45:57;;;;;;;9.77;5.25;;;16.50;99.90;;;;;;4927153;29;20063;-79
2022/04/08 10:48:33;;;;;;;9.65;4.30;;;16.60;99.90;;;;;;4945603;29;20596;-79
2022/04/08 10:51:05;;;;;;;12.95;5.88;;;16.80;99.90;;;;;;4946058;29;20016;-79
2022/04/08 10:53:34;;;;;;;11.02;5.18;;;17.20;99.90;;;;;;4944920;29;20034;-79
2022/04/08 10:56:09;;;;;;;9.48;4.35;;;17.20;99.90;;;;;;4942057;29;20553;-79
2022/04/08 10:58:40;;;;;;;9.90;4.75;;;17.30;99.90;;;;;;4942727;29;20024;-78
2022/04/08 11:01:22;;;;;;;13.70;5.03;;;17.30;99.90;;;;;;4943694;28;20289;-79
2022/04/08 11:03:57;;;;;;;6.55;4.65;;;17.40;99.90;;;;;;4943855;29;20028;-79
2022/04/08 11:06:29;;;;;;;8.27;4.28;;;17.60;99.90;;;;;;4945830;29;20050;-78
2022/04/08 11:08:57;;;;;;;8.23;3.45;;;17.70;99.90;;;;;;4944810;29;20036;-79
2022/04/08 11:11:30;;;;;;;6.13;3.95;;;17.80;99.90;;;;;;4942803;29;20012;-79
2022/04/08 11:13:58;;;;;;;9.07;4.93;;;18.00;99.90;;;;;;4945519;29;20024;-79
2022/04/08 11:16:26;;;;;;;10.38;4.32;;;18.00;99.60;;;;;;4949105;29;20164;-79
2022/04/08 11:18:52;;;;;;;8.40;4.75;;;18.20;99.80;;;;;;4944870;29;20497;-79
2022/04/08 11:21:19;;;;;;;10.38;4.45;;;18.20;98.70;;;;;;4943053;29;20061;-78
2022/04/08 11:24:02;;;;;;;5.97;3.90;;;18.20;97.50;;;;;;4929813;29;20027;-78
2022/04/08 11:26:30;;;;;;;9.60;4.35;;;18.30;98.70;;;;;;4937291;29;20431;-78
2022/04/08 11:29:17;;;;;;;7.55;4.38;;;18.30;97.90;;;;;;4946617;29;20037;-79
2022/04/08 11:31:44;;;;;;;7.20;3.97;;;18.40;97.00;;;;;;4941393;29;20024;-79
2022/04/08 11:34:13;;;;;;;12.70;4.68;;;18.40;97.30;;;;;;4938898;29;20110;-79
2022/04/08 11:36:39;;;;;;;9.70;5.68;;;18.50;98.30;;;;;;4950248;29;20066;-79
2022/04/08 11:39:05;;;;;;;6.68;4.07;;;18.60;98.20;;;;;;4943732;29;20032;-78
2022/04/08 11:41:31;;;;;;;8.60;5.25;;;18.80;98.10;;;;;;4918419;29;20032;-79
2022/04/08 11:43:57;;;;;;;8.70;4.68;;;18.70;96.40;;;;;;4939420;29;20111;-79
2022/04/08 11:46:26;;;;;;;7.72;4.82;;;18.80;97.70;;;;;;4949309;29;20170;-79
2022/04/08 11:48:52;;;;;;;9.55;4.88;;;18.80;97.70;;;;;;4944560;29;20027;-79
2022/04/08 11:51:20;;;;;;;8.07;4.45;;;18.90;97.20;;;;;;4943295;29;20034;-79
2022/04/08 11:53:50;;;;;;;9.23;4.63;;;19.00;96.40;;;;;;4939223;29;20016;-79
2022/04/08 11:56:25;;;;;;;12.65;5.13;;;18.90;96.20;;;;;;4948797;29;20486;-79
2022/04/08 11:58:55;;;;;;;6.47;4.45;;;19.00;96.70;;;;;;4945325;29;20045;-78
2022/04/08 12:01:21;;;;;;;10.18;4.57;;;19.30;96.80;;;;;;4947963;29;20031;-78
2022/04/08 12:03:52;;;;;;;17.77;5.07;;;19.50;97.10;;;;;;4938047;29;20063;-79
2022/04/08 12:06:18;;;;;;;6.43;4.20;;;19.70;97.20;;;;;;4930511;29;20035;-79
2022/04/08 12:08:48;;;;;;;6.20;4.43;;;19.80;96.90;;;;;;4946833;29;20496;-78
2022/04/08 12:11:15;;;;;;;6.80;4.13;;;19.90;95.80;;;;;;4941588;29;20102;-78
2022/04/08 12:13:42;;;;;;;13.57;4.93;;;20.00;96.20;;;;;;4932529;29;20031;-78
2022/04/08 12:16:13;;;;;;;10.25;4.40;;;20.00;95.10;;;;;;4935763;29;20031;-78
2022/04/08 12:18:50;;;;;;;8.07;3.70;;;20.10;95.80;;;;;;4942430;29;20555;-79
2022/04/08 12:21:22;;;;;;;12.40;5.03;;;20.10;94.70;;;;;;4938274;29;20039;-79
2022/04/08 12:23:51;;;;;;;7.18;4.10;;;20.20;95.10;;;;;;4944891;29;20088;-78
2022/04/08 12:26:18;;;;;;;8.40;4.47;;;20.20;94.90;;;;;;4936339;29;20051;-78
2022/04/08 12:28:44;;;;;;;5.90;3.67;;;20.10;94.70;;;;;;4943127;29;20157;-78
2022/04/08 12:31:18;;;;;;;10.05;4.53;;;20.00;94.70;;;;;;4935742;29;20070;-78
2022/04/08 12:33:44;;;;;;;8.60;4.25;;;20.20;95.00;;;;;;4935414;29;20015;-78
2022/04/08 12:36:11;;;;;;;7.80;4.28;;;20.30;95.30;;;;;;4947175;29;20114;-78
2022/04/08 12:38:42;;;;;;;10.38;5.10;;;20.40;94.20;;;;;;4933315;29;20024;-78
2022/04/08 12:41:10;;;;;;;13.82;4.78;;;20.60;94.30;;;;;;4939922;29;20485;-78
2022/04/08 12:43:35;;;;;;;12.98;4.88;;;20.60;94.10;;;;;;4934344;29;20028;-78
2022/04/08 12:46:01;;;;;;;13.25;5.78;;;20.60;94.80;;;;;;4950280;29;20457;-78
2022/04/08 12:48:28;;;;;;;11.35;4.75;;;20.40;94.20;;;;;;4935732;29;20070;-78
2022/04/08 12:50:56;;;;;;;14.55;5.18;;;20.30;94.10;;;;;;4935391;29;20023;-78
2022/04/08 12:53:22;;;;;;;8.57;3.95;;;20.40;94.90;;;;;;4935477;29;20016;-79
2022/04/08 12:55:49;;;;;;;6.75;4.25;;;20.40;94.30;;;;;;4931200;29;20397;-79
2022/04/08 12:58:15;;;;;;;10.40;3.45;;;20.50;94.80;;;;;;4921404;29;20077;-78
2022/04/08 13:00:41;;;;;;;7.50;4.30;;;20.60;94.40;;;;;;4941148;29;20106;-79
2022/04/08 13:03:10;;;;;;;8.32;4.15;;;20.70;94.00;;;;;;4938014;29;20150;-78
2022/04/08 13:05:36;;;;;;;15.20;5.25;;;20.80;94.20;;;;;;4939657;29;20559;-78
2022/04/08 13:08:02;;;;;;;11.52;4.97;;;21.00;93.40;;;;;;4949402;29;20036;-79
2022/04/08 13:10:27;;;;;;;13.10;5.53;;;21.00;93.50;;;;;;4952305;29;20741;-79
2022/04/08 13:12:53;;;;;;;8.25;4.30;;;21.10;93.10;;;;;;4952187;29;20030;-78
2022/04/08 13:15:19;;;;;;;10.88;5.15;;;21.20;94.00;;;;;;4941232;29;20118;-78
2022/04/08 13:17:46;;;;;;;10.65;5.05;;;21.20;93.60;;;;;;4950226;29;20060;-78
2022/04/08 13:20:12;;;;;;;9.38;4.95;;;21.10;93.20;;;;;;4947299;29;20035;-78
2022/04/08 13:22:38;;;;;;;10.85;5.90;;;21.00;92.90;;;;;;4935370;29;20040;-78
2022/04/08 13:25:04;;;;;;;19.60;5.72;;;20.90;93.70;;;;;;4937514;29;20095;-78
2022/04/08 13:27:30;;;;;;;11.43;5.45;;;20.70;93.40;;;;;;4939368;29;20011;-78
2022/04/08 13:29:56;;;;;;;15.07;6.35;;;20.50;93.80;;;;;;4939338;29;20508;-78
2022/04/08 13:32:22;;;;;;;14.32;5.90;;;20.50;93.90;;;;;;4922354;29;20110;-78
2022/04/08 13:34:48;;;;;;;14.07;5.35;;;20.50;94.20;;;;;;4931921;29;20024;-79
2022/04/08 13:37:14;;;;;;;8.70;6.25;;;20.50;94.60;;;;;;4942258;29;20020;-77
2022/04/08 13:39:41;;;;;;;12.88;5.65;;;20.40;94.50;;;;;;4948842;29;20035;-78
2022/04/08 13:42:07;;;;;;;13.27;6.65;;;20.40;94.90;;;;;;4948520;29;20098;-79
2022/04/08 13:44:33;;;;;;;14.82;6.78;;;20.50;93.90;;;;;;4951083;29;20119;-79
2022/04/08 13:47:03;;;;;;;12.75;6.60;;;20.30;93.80;;;;;;4939371;29;20028;-78
2022/04/08 13:49:29;;;;;;;13.82;7.03;;;20.30;94.60;;;;;;4936678;29;20027;-78
2022/04/08 13:51:55;;;;;;;14.00;6.95;;;20.40;94.70;;;;;;4949805;29;20027;-78
2022/04/08 13:54:21;;;;;;;11.13;6.50;;;20.40;95.10;;;;;;4943113;29;20038;-78
2022/04/08 13:56:49;;;;;;;15.55;6.88;;;20.60;94.80;;;;;;4950836;29;20024;-78
2022/04/08 13:59:15;;;;;;;9.95;6.78;;;20.70;94.40;;;;;;4947719;29;20032;-78
2022/04/08 14:01:41;;;;;;;8.88;5.65;;;20.60;94.50;;;;;;4938583;29;20035;-78
2022/04/08 14:04:07;;;;;;;12.95;5.78;;;20.60;95.00;;;;;;4938510;29;20527;-78
2022/04/08 14:06:33;;;;;;;12.75;5.88;;;20.50;94.60;;;;;;4938872;29;20482;-78
2022/04/08 14:08:59;;;;;;;20.38;7.10;;;20.30;94.50;;;;;;4948203;29;20027;-78
2022/04/08 14:11:26;;;;;;;19.00;7.07;;;20.20;94.70;;;;;;4930383;29;20083;-76
2022/04/08 14:13:51;;;;;;;14.05;6.00;;;20.10;95.80;;;;;;4920979;29;20429;-75
2022/04/08 14:16:17;;;;;;;10.95;5.90;;;20.00;95.80;;;;;;4952787;29;20135;-75
2022/04/08 14:18:43;;;;;;;15.85;6.47;;;20.00;95.70;;;;;;4944477;29;20027;-78
2022/04/08 14:21:09;;;;;;;11.45;5.55;;;20.00;95.10;;;;;;4948443;29;20042;-78
2022/04/08 14:23:35;;;;;;;10.15;4.93;;;19.90;95.20;;;;;;4947996;29;20034;-75
2022/04/08 14:26:01;;;;;;;10.68;4.43;;;19.90;95.20;;;;;;4939261;29;20055;-75
2022/04/08 14:28:26;;;;;;;9.75;5.00;;;19.80;95.30;;;;;;4937364;29;20082;-76
2022/04/08 14:30:52;;;;;;;12.18;5.00;;;19.80;95.70;;;;;;4948649;29;20106;-75
2022/04/08 14:33:19;;;;;;;12.45;5.35;;;19.70;95.40;;;;;;4945727;29;20470;-75
2022/04/08 14:35:48;;;;;;;11.63;5.45;;;19.70;96.10;;;;;;4939677;28;20027;-75
2022/04/08 14:38:13;;;;;;;9.82;4.43;;;19.60;96.10;;;;;;4940285;29;20035;-75
2022/04/08 14:40:40;;;;;;;8.65;4.65;;;19.60;96.00;;;;;;4942314;29;20034;-76
2022/04/08 14:43:06;;;;;;;13.95;4.80;;;19.60;96.10;;;;;;4939313;29;20020;-76
2022/04/08 14:45:38;;;;;;;10.57;4.90;;;19.60;96.10;;;;;;4942746;29;20786;-76
2022/04/08 14:48:04;;;;;;;9.23;4.53;;;19.60;96.30;;;;;;4944444;29;20066;-75
2022/04/08 14:50:30;;;;;;;13.82;5.50;;;19.60;96.70;;;;;;4953472;29;20055;-75
2022/04/08 14:52:56;;;;;;;12.48;5.03;;;19.60;96.30;;;;;;4941905;29;20055;-75
2022/04/08 14:55:22;;;;;;;16.95;5.85;;;19.60;96.40;;;;;;4934168;29;20028;-75
2022/04/08 14:57:47;;;;;;;9.55;5.22;;;19.60;96.40;;;;;;4934312;29;20028;-75
2022/04/08 15:00:13;;;;;;;7.57;4.47;;;19.60;96.40;;;;;;4933688;29;20027;-75
2022/04/08 15:02:39;;;;;;;6.90;4.00;;;19.60;96.50;;;;;;4944203;29;20031;-75
2022/04/08 15:05:06;;;;;;;6.07;3.88;;;19.50;96.20;;;;;;4938566;29;20031;-75
2022/04/08 15:07:31;;;;;;;7.68;4.63;;;19.50;96.40;;;;;;4949871;29;20374;-75
2022/04/08 15:09:57;;;;;;;12.27;4.60;;;19.70;96.70;;;;;;4952018;29;20055;-75
2022/04/08 15:12:23;;;;;;;7.28;4.40;;;19.90;96.70;;;;;;4932830;29;20027;-75
2022/04/08 15:14:49;;;;;;;7.80;4.15;;;20.10;96.20;;;;;;4932903;29;20486;-75
2022/04/08 15:17:15;;;;;;;12.70;5.15;;;20.20;96.00;;;;;;4934095;29;20028;-75
2022/04/08 15:19:41;;;;;;;8.30;5.65;;;20.10;95.10;;;;;;4936013;29;20067;-79
2022/04/08 15:22:07;;;;;;;9.32;4.80;;;20.00;95.80;;;;;;4935946;29;20070;-75
2022/04/08 15:24:33;;;;;;;8.93;4.10;;;20.10;96.00;;;;;;4938082;29;20416;-78
2022/04/08 15:27:03;;;;;;;9.13;4.82;;;20.00;95.90;;;;;;4920678;29;20067;-78
2022/04/08 15:29:29;;;;;;;13.27;4.40;;;19.90;96.10;;;;;;4926406;29;20032;-79
2022/04/08 15:31:54;;;;;;;7.20;4.70;;;19.90;96.00;;;;;;4925278;29;20024;-75
2022/04/08 15:34:20;;;;;;;11.10;4.50;;;19.80;95.90;;;;;;4922528;29;20024;-75
2022/04/08 15:36:46;;;;;;;9.00;5.07;;;19.70;96.10;;;;;;4933803;29;20063;-77
2022/04/08 15:39:12;;;;;;;11.45;4.47;;;19.80;96.60;;;;;;4931395;29;20513;-78
2022/04/08 15:41:38;;;;;;;14.30;4.45;;;19.90;95.80;;;;;;4930715;29;20110;-78
2022/04/08 15:44:05;;;;;;;10.65;4.43;;;19.90;95.70;;;;;;4924211;29;20027;-79
2022/04/08 15:46:31;;;;;;;7.57;3.92;;;19.90;95.90;;;;;;4924013;29;20506;-78
2022/04/08 15:48:57;;;;;;;5.88;3.85;;;19.80;96.30;;;;;;4922798;29;20027;-78
2022/04/08 15:51:23;;;;;;;10.25;3.55;;;19.80;96.40;;;;;;4922882;29;20016;-78
2022/04/08 15:53:49;;;;;;;5.90;3.63;;;19.70;96.60;;;;;;4928825;29;20031;-78
2022/04/08 15:56:14;;;;;;;10.15;3.80;;;19.90;96.80;;;;;;4921595;29;20047;-79
2022/04/08 15:58:41;;;;;;;10.80;4.05;;;20.00;96.40;;;;;;4917388;29;20074;-78
2022/04/08 16:01:07;;;;;;;4.18;3.20;;;20.20;96.50;;;;;;4920476;29;20040;-78
2022/04/08 16:03:33;;;;;;;8.85;4.38;;;20.40;95.50;;;;;;4925499;29;20046;-78
2022/04/08 16:05:59;;;;;;;10.85;3.83;;;20.50;95.40;;;;;;4926469;29;20039;-79
2022/04/08 16:08:25;;;;;;;7.63;3.95;;;20.40;95.00;;;;;;4916148;29;20536;-79
2022/04/08 16:10:50;;;;;;;5.47;3.63;;;20.30;95.50;;;;;;4924077;29;20031;-78
2022/04/08 16:13:17;;;;;;;10.10;3.55;;;20.40;95.80;;;;;;4933276;29;20026;-78
2022/04/08 16:15:43;;;;;;;7.90;3.80;;;20.50;96.10;;;;;;4932043;29;20051;-79
2022/04/08 16:18:08;;;;;;;8.98;3.75;;;20.70;95.50;;;;;;4932973;29;20063;-78
2022/04/08 16:20:34;;;;;;;8.30;3.38;;;20.70;95.10;;;;;;4931408;29;20032;-79
2022/04/08 16:23:00;;;;;;;10.25;4.32;;;20.70;95.50;;;;;;4932425;29;20020;-78
2022/04/08 16:25:26;;;;;;;9.25;3.75;;;20.70;95.50;;;;;;4936582;29;20536;-78
2022/04/08 16:27:52;;;;;;;6.88;3.17;;;20.80;95.40;;;;;;4952423;29;20035;-78
2022/04/08 16:30:18;;;;;;;11.80;4.00;;;20.80;95.50;;;;;;4949594;29;20086;-79
2022/04/08 16:32:43;;;;;;;9.70;2.78;;;20.90;95.20;;;;;;4952494;29;20102;-78
2022/04/08 16:35:10;;;;;;;4.38;2.50;;;21.20;94.90;;;;;;4950372;29;20055;-78
2022/04/08 16:37:36;;;;;;;8.18;2.85;;;21.50;94.50;;;;;;4951839;29;20015;-78
2022/04/08 16:40:03;;;;;;;7.15;2.72;;;21.70;94.30;;;;;;4945516;29;20031;-78
2022/04/08 16:42:29;;;;;;;6.57;2.03;;;21.90;93.50;;;;;;4932852;29;20051;-79
2022/04/08 16:44:55;;;;;;;8.43;2.38;;;21.80;93.00;;;;;;4913839;29;20067;-79
2022/04/08 16:47:23;;;;;;;3.50;1.70;;;21.50;92.70;;;;;;4932960;29;20101;-78
2022/04/08 16:49:51;;;;;;;3.83;1.30;;;21.20;93.00;;;;;;4930726;29;20038;-79
2022/04/08 16:52:16;;;;;;;4.03;1.40;;;20.90;93.40;;;;;;4933275;29;20034;-79
2022/04/08 16:54:42;;;;;;;5.78;1.10;;;20.70;93.80;;;;;;4931228;29;20102;-78
2022/04/08 16:57:08;;;;;;;2.90;1.17;;;20.40;94.20;;;;;;4932526;29;20031;-78
2022/04/08 16:59:34;;;;;;;3.75;1.05;;;20.20;94.60;;;;;;4931944;29;20027;-78
2022/04/08 17:02:00;;;;;;;5.28;1.30;;;20.10;95.10;;;;;;4920842;29;20028;-79
2022/04/08 17:04:25;;;;;;;5.53;1.13;;;20.00;95.60;;;;;;4935286;29;20059;-78
2022/04/08 17:06:51;;;;;;;3.17;1.40;;;19.80;95.80;;;;;;4943243;29;20032;-78
2022/04/08 17:09:17;;;;;;;5.72;1.25;;;19.70;96.20;;;;;;4934243;29;20382;-78
2022/04/08 17:11:43;;;;;;;3.28;1.15;;;19.60;96.50;;;;;;4928491;29;20031;-78
2022/04/08 17:14:09;;;;;;;7.90;2.13;;;19.50;96.80;;;;;;4949388;29;20474;-79
2022/04/08 17:16:36;;;;;;;4.60;1.20;;;19.40;97.10;;;;;;4948562;29;20636;-78
2022/04/08 17:19:02;;;;;;;5.18;1.40;;;19.30;97.20;;;;;;4940239;29;20486;-78
2022/04/08 17:21:28;;;;;;;3.90;1.92;;;19.20;97.30;;;;;;4930546;29;20545;-79
2022/04/08 17:23:58;;;;;;;7.88;1.98;;;19.10;97.80;;;;;;4940117;29;20034;-78
2022/04/08 17:26:27;;;;;;;5.15;1.50;;;19.00;98.10;;;;;;4934950;29;20399;-78
2022/04/08 17:28:53;;;;;;;9.38;2.35;;;19.00;98.50;;;;;;4935253;29;20027;-78
2022/04/08 17:31:19;;;;;;;7.03;2.30;;;18.90;98.60;;;;;;4934377;29;20058;-78
2022/04/08 17:33:48;;;;;;;10.63;1.95;;;18.80;98.90;;;;;;4936843;29;20101;-78
2022/04/08 17:36:14;;;;;;;6.50;1.80;;;18.70;99.10;;;;;;4939162;29;20075;-78
2022/04/08 17:38:40;;;;;;;9.27;2.25;;;18.70;99.20;;;;;;4925432;29;20375;-78
2022/04/08 17:41:06;;;;;;;4.55;1.33;;;18.70;99.30;;;;;;4944506;29;20058;-78
2022/04/08 17:43:34;;;;;;;4.18;1.60;;;18.60;99.40;;;;;;4943112;29;20020;-78
2022/04/08 17:46:04;;;;;;;9.85;1.95;;;18.60;99.50;;;;;;4942713;29;20392;-79
2022/04/08 17:48:34;;;;;;;6.93;1.90;;;18.60;99.60;;;;;;4942015;29;20492;-78
2022/04/08 17:51:00;;;;;;;9.95;1.88;;;18.50;99.90;;;;;;4942696;29;20035;-78
2022/04/08 17:53:27;;;;;;;6.18;1.45;;;18.50;99.80;;;;;;4943327;29;20011;-78
2022/04/08 17:55:53;;;;;;;13.57;1.95;;;18.40;99.90;;;;;;4927209;29;20396;-78
2022/04/08 17:58:20;;;;;;;8.90;1.83;;;18.40;99.90;;;;;;4939610;29;20023;-78
2022/04/08 18:00:46;;;;;;;6.63;1.42;;;18.30;99.90;;;;;;4940032;29;20102;-78
2022/04/08 18:03:12;;;;;;;6.35;2.22;;;18.30;99.90;;;;;;4940078;29;20485;-78
2022/04/08 18:05:39;;;;;;;7.32;1.23;;;18.20;99.70;;;;;;4922202;29;20071;-78
2022/04/08 18:08:06;;;;;;;5.47;1.42;;;18.20;99.80;;;;;;4935331;29;20390;-79
2022/04/08 18:10:32;;;;;;;9.43;1.65;;;18.20;99.90;;;;;;4935241;29;20032;-79
2022/04/08 18:12:59;;;;;;;2.90;1.90;;;18.10;99.90;;;;;;4938391;29;20032;-78
2022/04/08 18:15:24;;;;;;;7.90;1.80;;;18.10;99.90;;;;;;4938985;29;20504;-79
2022/04/08 18:17:50;;;;;;;5.22;1.85;;;18.10;99.90;;;;;;4938954;29;20016;-78
2022/04/08 18:20:16;;;;;;;9.98;1.50;;;18.00;99.90;;;;;;4938761;29;20020;-79
2022/04/08 18:22:42;;;;;;;4.30;2.00;;;18.00;99.90;;;;;;4938710;29;20127;-79
2022/04/08 18:25:09;;;;;;;7.43;1.75;;;17.90;99.90;;;;;;4938479;29;20074;-78
2022/04/08 18:27:38;;;;;;;2.30;1.40;;;18.00;99.90;;;;;;4938356;29;20028;-79
2022/04/08 18:30:04;;;;;;;5.10;1.95;;;17.90;99.90;;;;;;4921319;29;20561;-78
2022/04/08 18:32:31;;;;;;;5.75;2.00;;;17.90;99.90;;;;;;4938477;29;20106;-78
2022/04/08 18:34:58;;;;;;;5.05;1.70;;;17.90;99.90;;;;;;4947544;29;20012;-78
2022/04/08 18:37:24;;;;;;;3.28;1.30;;;17.90;99.90;;;;;;4939289;29;20039;-78
2022/04/08 18:39:50;;;;;;;5.78;1.45;;;17.80;99.90;;;;;;4938477;29;20047;-78
2022/04/08 18:42:16;;;;;;;4.65;2.08;;;17.80;99.90;;;;;;4938264;29;20477;-78
2022/04/08 18:44:43;;;;;;;10.88;1.85;;;17.70;99.90;;;;;;4938251;29;20042;-74
2022/04/08 18:47:10;;;;;;;7.75;1.63;;;17.70;99.90;;;;;;4938239;29;20490;-75
2022/04/08 18:49:36;;;;;;;7.15;1.38;;;17.70;99.90;;;;;;4938452;29;20123;-75
2022/04/08 18:52:04;;;;;;;5.50;1.60;;;17.70;99.90;;;;;;4941235;29;20086;-75
2022/04/08 18:54:30;;;;;;;4.15;1.50;;;17.60;99.80;;;;;;4938157;29;20149;-75
2022/04/08 18:56:56;;;;;;;6.35;1.67;;;17.60;99.40;;;;;;4938446;29;20077;-75
2022/04/08 18:59:22;;;;;;;7.22;2.13;;;17.60;99.50;;;;;;4938111;29;20066;-74
2022/04/08 19:01:47;;;;;;;3.40;1.70;;;17.50;99.60;;;;;;4937379;29;20470;-75
2022/04/08 19:04:13;;;;;;;5.32;1.55;;;17.50;99.90;;;;;;4936737;29;20489;-75
2022/04/08 19:06:39;;;;;;;3.78;1.63;;;17.50;99.90;;;;;;4937667;29;20078;-75
2022/04/08 19:09:08;;;;;;;7.47;1.98;;;17.40;99.90;;;;;;4956250;29;20039;-74
2022/04/08 19:11:34;;;;;;;6.70;1.70;;;17.40;99.90;;;;;;4934655;29;20109;-79
2022/04/08 19:14:00;;;;;;;8.82;2.10;;;17.40;99.90;;;;;;4934515;29;20486;-79
2022/04/08 19:16:26;;;;;;;7.72;2.35;;;17.30;99.90;;;;;;4933701;29;20539;-79
2022/04/08 19:18:51;;;;;;;8.38;2.22;;;17.30;99.90;;;;;;4934485;29;20023;-79
2022/04/08 19:21:17;;;;;;;5.80;2.08;;;17.20;99.90;;;;;;4934303;29;20039;-79
2022/04/08 19:23:43;;;;;;;9.57;2.35;;;17.20;99.90;;;;;;4933267;29;20028;-79
2022/04/08 19:26:09;;;;;;;7.05;1.90;;;17.20;99.40;;;;;;4936299;29;20139;-79
2022/04/08 19:28:35;;;;;;;8.80;2.20;;;17.20;99.60;;;;;;4933572;29;20676;-79
2022/04/08 19:31:00;;;;;;;8.32;2.53;;;17.10;99.70;;;;;;4933924;29;20106;-78
2022/04/08 19:33:26;;;;;;;11.43;2.95;;;17.10;99.90;;;;;;4934241;29;20046;-78
2022/04/08 19:35:52;;;;;;;9.30;2.30;;;17.10;99.90;;;;;;4934200;29;20062;-79
2022/04/08 19:38:35;;;;;;;4.60;2.17;;;17.00;99.90;;;;;;4935554;29;20022;-78
2022/04/08 19:57:38;;;;;;;3.65;2.10;;;16.90;99.70;;;;;;5105497;23;20030;-78
2022/04/08 20:01:11;;;;;;;9.05;2.20;;;16.80;99.60;;;;;;4993938;23;20412;-78
2022/04/08 20:06:43;;;;;;;4.38;1.77;;;16.70;99.90;;;;;;5168491;23;20049;-73
2022/04/08 20:14:55;;;;;;;6.32;1.65;;;16.60;99.80;;;;;;5109559;23;20051;-78
2022/04/08 20:17:20;;;;;;;4.70;2.05;;;16.60;99.90;;;;;;5190318;23;20054;-73
2022/04/08 20:19:49;;;;;;;11.18;2.28;;;16.50;99.90;;;;;;5035519;23;20049;-74
2022/04/08 20:22:16;;;;;;;6.63;1.80;;;16.50;99.90;;;;;;4977597;28;20038;-78
2022/04/08 20:24:42;;;;;;;12.90;2.28;;;16.40;99.90;;;;;;4977772;28;20027;-74
2022/04/08 20:27:11;;;;;;;5.25;2.88;;;16.40;99.90;;;;;;5006546;23;20061;-78
2022/04/08 20:32:07;;;;;;;9.10;2.45;;;16.30;99.90;;;;;;4917575;29;20036;-74
2022/04/08 20:34:33;;;;;;;9.23;1.92;;;16.20;99.90;;;;;;4919024;29;20035;-74
2022/04/08 20:36:59;;;;;;;7.55;1.95;;;16.20;99.90;;;;;;4919402;29;20052;-74
2022/04/08 20:39:25;;;;;;;5.88;1.70;;;16.10;99.90;;;;;;4920169;29;20517;-73
2022/04/08 20:41:54;;;;;;;9.48;2.63;;;16.10;99.90;;;;;;4919922;29;20056;-74
2022/04/08 20:44:20;;;;;;;11.77;2.20;;;16.00;99.90;;;;;;4919415;29;20494;-74
2022/04/08 20:46:45;;;;;;;8.82;2.30;;;16.00;99.90;;;;;;4918969;29;20024;-78
2022/04/08 20:49:11;;;;;;;5.65;1.98;;;16.00;99.90;;;;;;4919299;29;20048;-78
2022/04/08 20:51:37;;;;;;;6.18;2.10;;;15.90;99.90;;;;;;4919920;29;20181;-74
2022/04/08 20:54:03;;;;;;;6.43;2.40;;;15.90;99.90;;;;;;4918799;29;20140;-78
2022/04/08 20:56:28;;;;;;;6.07;2.22;;;15.90;99.90;;;;;;4976391;23;20055;-78
2022/04/08 20:59:03;;;;;;;5.43;2.30;;;15.80;99.90;;;;;;4977361;28;20031;-74
2022/04/08 21:01:29;;;;;;;5.60;2.00;;;15.70;99.90;;;;;;4958385;28;20027;-74
2022/04/08 21:03:55;;;;;;;4.43;1.85;;;15.70;99.90;;;;;;4976893;28;20030;-78
2022/04/08 21:06:21;;;;;;;6.18;2.25;;;15.70;99.90;;;;;;4992487;23;20030;-77
2022/04/08 21:08:48;;;;;;;5.55;2.13;;;15.60;99.90;;;;;;5065463;23;20083;-74
2022/04/08 21:11:14;;;;;;;5.97;1.77;;;15.60;99.90;;;;;;4964434;23;20409;-74
2022/04/08 21:13:41;;;;;;;7.60;1.85;;;15.60;99.90;;;;;;4942419;28;20027;-77
2022/04/08 21:16:17;;;;;;;15.73;3.67;;;15.50;99.90;;;;;;4938221;29;20035;-74
2022/04/08 21:18:47;;;;;;;16.45;3.70;;;15.50;99.90;;;;;;4922111;29;20075;-74
2022/04/08 21:21:13;;;;;;;10.10;3.05;;;15.40;99.90;;;;;;4949265;23;20063;-74
2022/04/08 21:23:39;;;;;;;9.27;2.08;;;15.30;99.90;;;;;;4937706;29;20031;-79
2022/04/08 21:26:06;;;;;;;9.88;2.58;;;15.20;99.90;;;;;;4938432;29;20284;-76
2022/04/08 21:28:32;;;;;;;6.93;2.45;;;15.20;99.90;;;;;;4937567;29;20390;-78
2022/04/08 21:30:57;;;;;;;4.18;2.47;;;15.00;99.90;;;;;;4937240;28;20028;-78
2022/04/08 21:33:23;;;;;;;7.80;2.20;;;14.90;99.90;;;;;;4937480;29;20030;-78
2022/04/08 21:35:49;;;;;;;7.30;2.83;;;14.80;99.90;;;;;;4938257;28;20048;-73